Time;durP1;ratioP1;P1;durP2;ratioP2;P2;SDS_P1;SDS_P2;PMS_P1;PMS_P2;Temp;Humidity;BMP_temperature;BMP_pressure;BME280_temperature;BME280_humidity;BME280_pressure;Samples;Min_cycle;Max_cycle;Signal;HPM_P1;HPM_P2
2023/04/23 00:01:16;;;;;;;1999.90;999.90;;;12.60;99.90;;;;;;5071612;28;20035;-75
2023/04/23 00:03:43;;;;;;;1999.90;999.90;;;12.50;99.90;;;;;;5072536;28;20045;-76
2023/04/23 00:06:09;;;;;;;1999.90;999.90;;;12.50;99.90;;;;;;5072533;28;20036;-75
2023/04/23 00:08:39;;;;;;;1999.90;999.90;;;12.50;99.90;;;;;;5075841;28;20035;-76
2023/04/23 00:11:05;;;;;;;1999.90;999.90;;;12.60;99.90;;;;;;5076657;28;20425;-74
2023/04/23 00:13:31;;;;;;;1999.90;999.90;;;12.60;99.90;;;;;;5076663;28;20024;-70
2023/04/23 00:15:57;;;;;;;1999.90;999.90;;;12.60;99.90;;;;;;5076318;28;20490;-76
2023/04/23 00:18:22;;;;;;;1999.90;999.90;;;12.60;99.90;;;;;;5076495;28;20048;-70
2023/04/23 00:20:48;;;;;;;1999.90;999.90;;;12.60;99.90;;;;;;5076109;28;20070;-76
2023/04/23 00:23:14;;;;;;;1999.90;999.90;;;12.60;99.90;;;;;;5076207;28;20052;-70
2023/04/23 00:25:39;;;;;;;1999.90;999.90;;;12.60;99.90;;;;;;5076050;28;20056;-70
2023/04/23 00:28:05;;;;;;;1999.90;999.90;;;12.60;99.90;;;;;;5080213;28;20016;-70
2023/04/23 00:30:31;;;;;;;1999.90;999.90;;;12.60;99.90;;;;;;5096521;28;20032;-76
2023/04/23 00:32:56;;;;;;;1999.90;999.90;;;12.70;99.90;;;;;;5096253;28;20032;-76
2023/04/23 00:35:22;;;;;;;1999.90;999.90;;;12.70;99.90;;;;;;5096355;28;20028;-76
2023/04/23 00:37:48;;;;;;;1999.90;999.90;;;12.70;99.90;;;;;;5096137;28;20069;-70
2023/04/23 00:40:13;;;;;;;1999.90;999.90;;;12.70;99.90;;;;;;5096133;28;20027;-70
2023/04/23 00:42:39;;;;;;;1999.90;999.90;;;12.70;99.90;;;;;;5096236;28;20479;-70
2023/04/23 00:45:07;;;;;;;1999.90;999.90;;;12.70;99.90;;;;;;5096213;28;20035;-70
2023/04/23 00:47:33;;;;;;;1999.90;999.90;;;12.70;99.90;;;;;;5086289;28;20065;-70
2023/04/23 00:50:00;;;;;;;1999.90;999.90;;;12.80;99.90;;;;;;5075319;28;20522;-75
2023/04/23 00:52:28;;;;;;;1999.90;999.90;;;12.70;99.90;;;;;;5075648;28;20115;-70
2023/04/23 00:54:54;;;;;;;1999.90;999.90;;;12.70;99.90;;;;;;5075388;28;20081;-75
2023/04/23 00:57:20;;;;;;;1999.90;999.90;;;12.70;99.90;;;;;;5075874;28;20021;-75
2023/04/23 00:59:46;;;;;;;1999.90;999.90;;;12.80;99.90;;;;;;5075002;28;20466;-75
2023/04/23 01:02:13;;;;;;;1999.90;999.90;;;12.70;99.90;;;;;;5075091;28;20082;-70
2023/04/23 01:04:42;;;;;;;1999.90;999.90;;;12.70;99.90;;;;;;5075489;28;20021;-70
2023/04/23 01:07:08;;;;;;;1999.90;999.90;;;12.90;99.90;;;;;;5075454;28;20027;-70
2023/04/23 01:09:34;;;;;;;1999.90;999.90;;;12.80;99.90;;;;;;5075501;28;20036;-75
2023/04/23 01:12:01;;;;;;;1999.90;999.90;;;12.80;99.90;;;;;;5075906;28;20021;-70
2023/04/23 01:14:27;;;;;;;1999.90;999.90;;;12.80;99.90;;;;;;5075271;28;20569;-75
2023/04/23 01:16:53;;;;;;;1999.90;999.90;;;12.90;99.90;;;;;;5074256;28;20028;-71
2023/04/23 01:19:19;;;;;;;1999.90;999.90;;;12.80;99.90;;;;;;5074693;28;20052;-70
2023/04/23 01:21:44;;;;;;;1999.90;999.90;;;12.90;99.90;;;;;;5075211;28;20090;-76
2023/04/23 01:24:10;;;;;;;1999.90;999.90;;;12.80;99.90;;;;;;5075167;28;20016;-75
2023/04/23 01:26:38;;;;;;;1999.90;999.90;;;12.80;99.90;;;;;;5074949;28;20024;-75
2023/04/23 01:29:04;;;;;;;1999.90;999.90;;;12.80;99.90;;;;;;5087073;28;20028;-70
2023/04/23 01:31:30;;;;;;;1999.90;999.90;;;12.80;99.90;;;;;;5076577;28;20024;-70
2023/04/23 01:33:57;;;;;;;1999.90;999.90;;;12.80;99.90;;;;;;5095325;28;20109;-70
2023/04/23 01:36:24;;;;;;;1999.90;999.90;;;12.80;99.90;;;;;;5095059;28;20023;-75
2023/04/23 01:38:50;;;;;;;1999.90;999.90;;;12.80;99.90;;;;;;5076705;28;20416;-70
2023/04/23 01:41:16;;;;;;;1999.90;999.90;;;12.80;99.90;;;;;;5095048;28;20027;-70
2023/04/23 01:43:42;;;;;;;1999.90;999.90;;;12.80;99.90;;;;;;5095020;28;20103;-70
2023/04/23 01:46:09;;;;;;;1999.90;999.90;;;12.80;99.90;;;;;;5094886;28;20028;-76
2023/04/23 01:48:35;;;;;;;1999.90;999.90;;;12.80;99.90;;;;;;5077959;28;20035;-77
2023/04/23 01:51:01;;;;;;;1999.90;999.90;;;12.70;99.90;;;;;;5043454;28;20099;-76
2023/04/23 01:53:27;;;;;;;1999.90;999.90;;;12.80;99.90;;;;;;5034690;28;20026;-76
2023/04/23 01:55:55;;;;;;;1999.90;999.90;;;12.70;99.90;;;;;;5034532;28;20484;-71
2023/04/23 01:58:22;;;;;;;1999.90;999.90;;;12.70;99.90;;;;;;5034600;28;20018;-71
2023/04/23 02:00:49;;;;;;;1999.90;999.90;;;12.70;99.90;;;;;;5033547;28;20030;-76
2023/04/23 02:03:14;;;;;;;1999.90;999.90;;;12.70;99.90;;;;;;5034517;28;20033;-70
2023/04/23 02:05:41;;;;;;;1999.90;999.90;;;12.60;99.90;;;;;;5034384;28;20104;-76
2023/04/23 02:08:07;;;;;;;1999.90;999.90;;;12.60;99.90;;;;;;5034357;28;20029;-74
2023/04/23 02:10:33;;;;;;;1999.90;999.90;;;12.50;99.90;;;;;;5034488;28;20481;-70
2023/04/23 02:13:00;;;;;;;1999.90;999.90;;;12.40;99.90;;;;;;5034302;28;20079;-77
2023/04/23 02:15:26;;;;;;;1999.90;999.90;;;12.30;99.90;;;;;;5034207;28;20021;-70
2023/04/23 02:17:52;;;;;;;1999.90;999.90;;;12.30;99.90;;;;;;5034320;28;20029;-77
2023/04/23 02:20:18;;;;;;;1999.90;999.90;;;12.30;99.90;;;;;;5034142;28;20032;-70
2023/04/23 02:22:45;;;;;;;1999.90;999.90;;;12.20;99.90;;;;;;5033995;28;20394;-70
2023/04/23 02:25:11;;;;;;;1999.90;999.90;;;12.20;99.90;;;;;;5034053;28;20029;-76
2023/04/23 02:27:37;;;;;;;1999.90;999.90;;;12.20;99.90;;;;;;5032841;28;20493;-71
2023/04/23 02:30:03;;;;;;;1999.90;999.90;;;12.20;99.90;;;;;;5053078;28;20029;-76
2023/04/23 02:32:28;;;;;;;1999.90;999.90;;;12.20;99.90;;;;;;5053749;28;20029;-76
2023/04/23 02:34:55;;;;;;;1999.90;999.90;;;12.20;99.90;;;;;;5053708;28;20040;-74
2023/04/23 02:37:20;;;;;;;1999.90;999.90;;;12.20;99.90;;;;;;5053744;28;20476;-70
2023/04/23 02:39:46;;;;;;;1999.90;999.90;;;12.20;99.90;;;;;;5053555;28;20021;-76
2023/04/23 02:42:12;;;;;;;1999.90;999.90;;;12.20;99.90;;;;;;5053562;28;20032;-70
2023/04/23 02:44:38;;;;;;;1999.90;999.90;;;12.10;99.90;;;;;;5053655;28;20017;-70
2023/04/23 02:47:03;;;;;;;1999.90;999.90;;;12.20;99.90;;;;;;5049019;28;20161;-70
2023/04/23 02:49:29;;;;;;;1999.90;999.90;;;12.10;99.90;;;;;;5033564;28;20021;-70
2023/04/23 02:51:55;;;;;;;1999.90;999.90;;;12.10;99.90;;;;;;5068226;28;20063;-76
2023/04/23 02:54:20;;;;;;;1999.90;999.90;;;12.10;99.90;;;;;;5073296;28;20024;-76
2023/04/23 02:56:46;;;;;;;1999.90;999.90;;;12.10;99.90;;;;;;5055335;28;20033;-77
2023/04/23 02:59:12;;;;;;;1999.90;999.90;;;12.10;99.90;;;;;;5073231;28;20070;-70
2023/04/23 03:01:37;;;;;;;1999.90;999.90;;;12.10;99.90;;;;;;5072457;28;20016;-71
2023/04/23 03:04:03;;;;;;;1999.90;999.90;;;12.10;99.90;;;;;;5073380;28;20027;-76
2023/04/23 03:06:30;;;;;;;1999.90;999.90;;;12.10;99.90;;;;;;5073073;28;20033;-70
2023/04/23 03:08:56;;;;;;;1999.90;999.90;;;12.10;99.90;;;;;;5072997;28;20513;-76
2023/04/23 03:11:22;;;;;;;1999.90;999.90;;;12.20;99.90;;;;;;5073456;28;20103;-76
2023/04/23 03:13:47;;;;;;;1999.90;999.90;;;12.20;99.90;;;;;;5073235;28;20039;-71
2023/04/23 03:16:13;;;;;;;1999.90;999.90;;;12.20;99.90;;;;;;5073215;28;20552;-70
2023/04/23 03:18:39;;;;;;;1999.90;999.90;;;12.20;99.90;;;;;;5072866;28;20020;-70
2023/04/23 03:21:05;;;;;;;1999.90;999.90;;;12.20;99.90;;;;;;5072997;28;20029;-76
2023/04/23 03:23:31;;;;;;;1999.90;999.90;;;12.30;99.90;;;;;;5072924;28;20074;-75
2023/04/23 03:25:56;;;;;;;1999.90;999.90;;;12.30;99.90;;;;;;5073298;28;20390;-75
2023/04/23 03:28:22;;;;;;;1999.90;999.90;;;12.30;99.90;;;;;;5079226;28;20024;-71
2023/04/23 03:30:48;;;;;;;1999.90;999.90;;;12.40;99.90;;;;;;5092449;28;20368;-70
2023/04/23 03:33:14;;;;;;;1999.90;999.90;;;12.40;99.90;;;;;;5093175;28;20031;-74
2023/04/23 03:35:39;;;;;;;1999.90;999.90;;;12.50;99.90;;;;;;5092980;28;20024;-74
2023/04/23 03:38:05;;;;;;;1999.90;999.90;;;12.40;99.90;;;;;;5093074;28;20024;-74
2023/04/23 03:40:31;;;;;;;1999.90;999.90;;;12.40;99.90;;;;;;5093253;28;20026;-70
2023/04/23 03:42:59;;;;;;;1999.90;999.90;;;12.40;99.90;;;;;;5092937;28;20483;-74
2023/04/23 03:45:25;;;;;;;1999.90;999.90;;;12.40;99.90;;;;;;5093028;28;20256;-74
2023/04/23 03:47:50;;;;;;;1999.90;999.90;;;12.40;99.90;;;;;;5081947;28;20058;-74
2023/04/23 03:50:16;;;;;;;1999.90;999.90;;;12.40;99.90;;;;;;5072730;28;20036;-70
2023/04/23 03:52:42;;;;;;;1999.90;999.90;;;12.40;99.90;;;;;;5072879;28;20024;-70
2023/04/23 03:55:08;;;;;;;1999.90;999.90;;;12.40;99.90;;;;;;5072412;28;20090;-75
2023/04/23 03:57:35;;;;;;;1999.90;999.90;;;12.30;99.90;;;;;;5073030;28;20097;-75
2023/04/23 04:00:01;;;;;;;1999.90;999.90;;;12.30;99.90;;;;;;5072856;28;20028;-71
2023/04/23 04:02:27;;;;;;;1999.90;999.90;;;12.40;99.90;;;;;;5071660;28;20069;-75
2023/04/23 04:04:53;;;;;;;1999.90;999.90;;;12.40;99.90;;;;;;5072755;28;20096;-75
2023/04/23 04:07:20;;;;;;;1999.90;999.90;;;12.40;99.90;;;;;;5072452;28;20021;-75
2023/04/23 04:09:47;;;;;;;1999.90;999.90;;;12.40;99.90;;;;;;5072405;28;20024;-74
2023/04/23 04:12:14;;;;;;;1999.90;999.90;;;12.40;99.90;;;;;;5072502;28;20056;-74
2023/04/23 04:14:40;;;;;;;1999.90;999.90;;;12.30;99.90;;;;;;5072543;28;20032;-70
2023/04/23 04:17:06;;;;;;;1999.90;999.90;;;12.30;99.90;;;;;;5071587;28;20029;-70
2023/04/23 04:19:32;;;;;;;1999.90;999.90;;;12.40;99.90;;;;;;5054327;28;20434;-70
2023/04/23 04:21:57;;;;;;;1999.90;999.90;;;12.30;99.90;;;;;;5072570;28;20016;-74
2023/04/23 04:24:24;;;;;;;1999.90;999.90;;;12.30;99.90;;;;;;5072365;28;20029;-74
2023/04/23 04:26:51;;;;;;;1999.90;999.90;;;12.30;99.90;;;;;;5072624;28;20024;-69
2023/04/23 04:29:18;;;;;;;1999.90;999.90;;;12.30;99.90;;;;;;5086177;28;20056;-74
2023/04/23 04:31:45;;;;;;;1999.90;999.90;;;12.20;99.90;;;;;;5092553;28;20099;-69
2023/04/23 04:34:13;;;;;;;1999.90;999.90;;;12.20;99.90;;;;;;5092301;28;20020;-70
2023/04/23 04:36:40;;;;;;;1999.90;999.90;;;12.20;99.90;;;;;;5092356;28;20024;-74
2023/04/23 04:39:06;;;;;;;1999.90;999.90;;;12.20;99.90;;;;;;5092473;28;20393;-70
2023/04/23 04:41:32;;;;;;;1999.90;999.90;;;12.20;99.90;;;;;;5092514;28;20021;-70
2023/04/23 04:43:58;;;;;;;1999.90;999.90;;;12.20;99.90;;;;;;5092500;28;20107;-75
2023/04/23 04:46:25;;;;;;;1999.90;999.90;;;12.30;99.90;;;;;;5092490;28;20103;-70
2023/04/23 04:48:50;;;;;;;1999.90;999.90;;;12.40;99.90;;;;;;5073040;28;20024;-69
2023/04/23 04:51:16;;;;;;;1999.90;999.90;;;12.40;99.90;;;;;;5072106;28;20170;-74
2023/04/23 04:53:45;;;;;;;1999.90;999.90;;;12.50;99.90;;;;;;5073625;28;20498;-74
2023/04/23 04:56:10;;;;;;;1999.90;999.90;;;12.50;99.90;;;;;;5075312;28;20028;-72
2023/04/23 04:58:36;;;;;;;1999.90;999.90;;;12.60;99.90;;;;;;5075919;28;20095;-70
2023/04/23 05:01:01;;;;;;;1999.90;999.90;;;12.60;99.90;;;;;;5075560;28;20074;-70
2023/04/23 05:03:27;;;;;;;1999.90;999.90;;;12.70;99.90;;;;;;5074787;28;20480;-70
2023/04/23 05:05:57;;;;;;;1999.90;999.90;;;12.80;99.90;;;;;;5075396;28;20085;-73
2023/04/23 05:08:24;;;;;;;1999.90;999.90;;;12.90;99.90;;;;;;5075379;28;20111;-70
2023/04/23 05:10:50;;;;;;;1999.90;999.90;;;12.90;99.90;;;;;;5075597;28;20020;-70
2023/04/23 05:13:16;;;;;;;1999.90;999.90;;;13.00;99.90;;;;;;5075580;28;20491;-70
2023/04/23 05:15:41;;;;;;;1999.90;999.90;;;13.00;99.90;;;;;;5075236;28;20100;-71
2023/04/23 05:18:09;;;;;;;1999.90;999.90;;;13.00;99.90;;;;;;5074889;28;20468;-75
2023/04/23 05:20:35;;;;;;;1999.90;999.90;;;13.00;99.90;;;;;;5075323;28;20013;-75
2023/04/23 05:23:01;;;;;;;1999.90;999.90;;;12.90;99.90;;;;;;5075089;28;20028;-74
2023/04/23 05:25:29;;;;;;;1999.90;999.90;;;13.00;99.90;;;;;;5075328;28;20078;-70
2023/04/23 05:27:55;;;;;;;1999.90;999.90;;;13.00;99.90;;;;;;5077706;28;20029;-74
2023/04/23 05:30:21;;;;;;;1999.90;999.90;;;13.00;99.90;;;;;;5095285;28;20020;-74
2023/04/23 05:32:46;;;;;;;1999.90;999.90;;;13.10;99.90;;;;;;5095237;28;20495;-74
2023/04/23 05:35:12;;;;;;;1999.90;999.90;;;13.10;99.90;;;;;;5094925;28;20490;-70
2023/04/23 05:37:37;;;;;;;1999.90;999.90;;;13.10;99.90;;;;;;5095178;28;20494;-70
2023/04/23 05:40:05;;;;;;;1999.90;999.90;;;13.20;99.90;;;;;;5095302;28;20024;-71
2023/04/23 05:42:31;;;;;;;1999.90;999.90;;;13.20;99.90;;;;;;5095359;28;20020;-75
2023/04/23 05:44:57;;;;;;;1999.90;999.90;;;13.20;99.90;;;;;;5094979;28;20562;-76
2023/04/23 05:47:22;;;;;;;1999.90;999.90;;;13.30;99.90;;;;;;5087998;28;20059;-76
2023/04/23 05:49:48;;;;;;;1999.90;999.90;;;13.30;99.90;;;;;;5074754;28;20031;-70
2023/04/23 05:52:14;;;;;;;1999.90;999.90;;;13.40;99.90;;;;;;5072440;28;20045;-71
2023/04/23 05:54:41;;;;;;;1999.90;999.90;;;13.40;99.90;;;;;;5074661;28;20107;-75
2023/04/23 05:57:06;;;;;;;1999.90;999.90;;;13.50;99.90;;;;;;5074116;28;20116;-75
2023/04/23 05:59:32;;;;;;;1999.90;999.90;;;13.50;99.90;;;;;;5074647;28;20095;-75
2023/04/23 06:01:58;;;;;;;1999.90;999.90;;;13.60;99.90;;;;;;5056443;28;20059;-74
2023/04/23 06:04:24;;;;;;;1999.90;999.90;;;13.70;99.90;;;;;;5072716;28;20488;-70
2023/04/23 06:06:49;;;;;;;1999.90;999.90;;;13.80;99.90;;;;;;5074599;28;20103;-75
2023/04/23 06:09:15;;;;;;;1999.90;999.90;;;13.70;99.90;;;;;;5074443;28;20063;-75
2023/04/23 06:11:41;;;;;;;1999.90;999.90;;;13.80;99.90;;;;;;5074793;28;20445;-70
2023/04/23 06:14:06;;;;;;;1999.90;999.90;;;13.80;99.90;;;;;;5073994;28;20041;-74
2023/04/23 06:16:32;;;;;;;1999.90;999.90;;;13.80;99.90;;;;;;5074087;28;20024;-74
2023/04/23 06:18:58;;;;;;;1999.90;999.90;;;13.80;99.90;;;;;;5073916;28;20032;-74
2023/04/23 06:21:24;;;;;;;1999.90;999.90;;;13.80;99.90;;;;;;5056111;28;20055;-74
2023/04/23 06:23:49;;;;;;;1999.90;999.90;;;13.80;99.90;;;;;;5074010;28;20464;-74
2023/04/23 06:26:15;;;;;;;1999.90;999.90;;;13.80;99.90;;;;;;5055849;28;20032;-74
2023/04/23 06:28:42;;;;;;;1999.90;999.90;;;13.90;99.90;;;;;;5082939;28;20020;-74
2023/04/23 06:31:07;;;;;;;1999.90;999.90;;;14.00;99.90;;;;;;5075726;28;20024;-74
2023/04/23 06:33:35;;;;;;;1999.90;999.90;;;14.00;99.90;;;;;;5094036;28;20031;-75
2023/04/23 06:36:01;;;;;;;1999.90;999.90;;;14.00;99.90;;;;;;5093912;28;20038;-74
2023/04/23 06:38:26;;;;;;;1999.90;999.90;;;14.10;99.90;;;;;;5094238;28;20032;-73
2023/04/23 06:40:52;;;;;;;1999.90;999.90;;;14.20;99.90;;;;;;5094009;28;20051;-70
2023/04/23 06:43:18;;;;;;;1999.90;999.90;;;14.20;99.90;;;;;;5094222;28;20364;-70
2023/04/23 06:45:43;;;;;;;1999.90;999.90;;;14.30;99.90;;;;;;5093809;28;20467;-74
2023/04/23 06:48:09;;;;;;;1999.90;999.90;;;14.30;99.90;;;;;;5080161;28;20048;-74
2023/04/23 06:50:35;;;;;;;1999.90;999.90;;;14.30;99.90;;;;;;5073549;28;20049;-75
2023/04/23 06:53:00;;;;;;;1999.90;999.90;;;14.40;99.90;;;;;;5073493;28;20479;-75
2023/04/23 06:55:27;;;;;;;1999.90;999.90;;;14.40;99.90;;;;;;5073197;28;20024;-70
2023/04/23 06:57:54;;;;;;;1999.90;999.90;;;14.20;99.90;;;;;;5073304;28;20053;-70
2023/04/23 07:00:21;;;;;;;1999.90;999.90;;;14.00;99.90;;;;;;5072266;28;20496;-72
2023/04/23 07:02:47;;;;;;;1999.90;999.90;;;13.80;99.90;;;;;;5054657;28;20139;-74
2023/04/23 07:05:12;;;;;;;1999.90;999.90;;;13.80;99.90;;;;;;5073239;28;20048;-74
2023/04/23 07:07:39;;;;;;;1999.90;999.90;;;13.80;99.90;;;;;;5073176;28;20033;-72
2023/04/23 07:10:05;;;;;;;1999.90;999.90;;;13.80;99.90;;;;;;5072546;28;20095;-70
2023/04/23 07:12:31;;;;;;;1999.90;999.90;;;13.90;99.90;;;;;;5072875;28;20063;-75
2023/04/23 07:14:57;;;;;;;1999.90;999.90;;;13.90;99.90;;;;;;5073188;28;20052;-73
2023/04/23 07:17:22;;;;;;;1999.90;999.90;;;13.90;99.90;;;;;;5071790;28;20040;-74
2023/04/23 07:19:48;;;;;;;1999.90;999.90;;;13.90;99.90;;;;;;5072863;28;20024;-71
2023/04/23 07:22:14;;;;;;;1999.90;999.90;;;14.00;99.90;;;;;;5073111;28;20549;-73
2023/04/23 07:24:40;;;;;;;1999.90;999.90;;;14.00;99.90;;;;;;5073003;28;20047;-75
2023/04/23 07:27:06;;;;;;;1999.90;999.90;;;14.10;99.90;;;;;;5055229;28;20402;-75
2023/04/23 07:29:31;;;;;;;1999.90;999.90;;;14.10;99.90;;;;;;5072923;28;20100;-75
2023/04/23 07:31:57;;;;;;;1999.90;999.90;;;14.30;99.90;;;;;;5073080;28;20103;-75
2023/04/23 07:34:23;;;;;;;1999.90;999.90;;;14.20;99.90;;;;;;5072594;28;20066;-70
2023/04/23 07:36:48;;;;;;;1999.90;999.90;;;14.20;99.90;;;;;;5072663;28;20039;-76
2023/04/23 07:39:14;;;;;;;1999.90;999.90;;;14.10;99.90;;;;;;5072690;28;20503;-71
2023/04/23 07:41:40;;;;;;;1999.90;999.90;;;14.10;99.90;;;;;;5072902;28;20025;-76
2023/04/23 07:44:06;;;;;;;1999.90;999.90;;;14.20;99.90;;;;;;5072774;28;20028;-77
2023/04/23 07:46:31;;;;;;;1999.90;999.90;;;14.20;99.90;;;;;;5072888;28;20036;-76
2023/04/23 07:48:57;;;;;;;1999.90;999.90;;;14.10;99.90;;;;;;5072547;28;20031;-70
2023/04/23 07:51:25;;;;;;;1999.90;999.90;;;14.00;99.90;;;;;;5072385;28;20526;-75
2023/04/23 07:53:53;;;;;;;1999.90;999.90;;;13.90;99.90;;;;;;5072841;28;20031;-75
2023/04/23 07:56:20;;;;;;;1999.90;999.90;;;14.00;99.90;;;;;;5072788;28;20060;-75
2023/04/23 07:58:46;;;;;;;1999.90;999.90;;;14.00;99.90;;;;;;5072842;28;20074;-70
2023/04/23 08:01:11;;;;;;;1999.90;999.90;;;14.10;99.90;;;;;;5072528;28;20103;-76
2023/04/23 08:03:37;;;;;;;1999.90;999.90;;;14.10;99.90;;;;;;5071877;28;20399;-76
2023/04/23 08:06:03;;;;;;;1999.90;999.90;;;14.00;99.90;;;;;;5072027;28;20033;-72
2023/04/23 08:08:29;;;;;;;1999.90;999.90;;;13.80;99.90;;;;;;5072477;28;20075;-79
2023/04/23 08:10:55;;;;;;;1999.90;999.90;;;13.80;99.90;;;;;;5072959;28;20467;-76
2023/04/23 08:13:20;;;;;;;1999.90;999.90;;;13.90;99.90;;;;;;5072496;28;20074;-70
2023/04/23 08:15:47;;;;;;;1999.90;999.90;;;13.80;99.90;;;;;;5072250;28;20070;-75
2023/04/23 08:18:13;;;;;;;1999.90;999.90;;;13.90;99.90;;;;;;5072208;28;20429;-75
2023/04/23 08:20:39;;;;;;;1999.90;999.90;;;13.90;99.90;;;;;;5070179;28;20021;-75
2023/04/23 08:23:05;;;;;;;1999.90;999.90;;;14.00;99.90;;;;;;5072298;28;20029;-75
2023/04/23 08:25:31;;;;;;;1999.90;999.90;;;14.00;99.90;;;;;;5072330;28;20025;-70
2023/04/23 08:27:57;;;;;;;1999.90;999.90;;;13.90;99.90;;;;;;5075498;28;20112;-70
2023/04/23 08:30:23;;;;;;;1999.90;999.90;;;13.90;99.90;;;;;;5096679;28;20024;-75
2023/04/23 08:32:52;;;;;;;1999.90;999.90;;;14.10;99.90;;;;;;5096520;28;20030;-75
2023/04/23 08:35:18;;;;;;;1999.90;999.90;;;14.00;99.90;;;;;;5078132;28;20028;-76
2023/04/23 08:37:44;;;;;;;1999.90;999.90;;;14.10;99.90;;;;;;5096239;28;20021;-71
2023/04/23 08:40:10;;;;;;;1999.90;999.90;;;14.10;99.90;;;;;;5096188;28;20064;-71
2023/04/23 08:42:54;;;;;;;1999.90;999.90;;;14.10;99.90;;;;;;5096336;28;20049;-75
2023/04/23 08:45:20;;;;;;;;;;;14.10;99.90;;;;;;5096764;28;20024;-70
2023/04/23 08:47:46;;;;;;;1999.90;999.90;;;14.30;99.90;;;;;;5085905;28;19962;-75
2023/04/23 08:50:15;;;;;;;1999.90;999.90;;;14.40;99.90;;;;;;5075512;28;20450;-73
2023/04/23 08:52:45;;;;;;;1999.90;999.90;;;14.70;99.90;;;;;;5075885;28;20032;-72
2023/04/23 08:55:11;;;;;;;1999.90;999.90;;;15.00;99.90;;;;;;5075604;28;20021;-70
2023/04/23 08:57:39;;;;;;;1999.90;999.90;;;15.50;99.90;;;;;;5075773;28;20426;-77
2023/04/23 09:00:09;;;;;;;1999.90;999.90;;;16.00;99.90;;;;;;5075820;28;20541;-70
2023/04/23 09:02:36;;;;;;;1999.90;999.90;;;16.50;99.90;;;;;;5075507;28;20025;-75
2023/04/23 09:05:06;;;;;;;1999.90;999.90;;;17.00;99.90;;;;;;5056981;28;20029;-75
2023/04/23 09:07:33;;;;;;;1999.90;999.90;;;16.80;99.90;;;;;;5075671;28;20070;-76
2023/04/23 09:09:59;;;;;;;1999.90;999.90;;;16.80;99.90;;;;;;5057313;28;20075;-76
2023/04/23 09:12:24;;;;;;;1999.90;999.90;;;16.80;99.90;;;;;;5075538;28;20033;-70
2023/04/23 09:14:50;;;;;;;1999.90;999.90;;;16.50;99.90;;;;;;5075681;28;20085;-77
2023/04/23 09:17:17;;;;;;;1999.90;999.90;;;17.10;99.90;;;;;;5075164;28;20028;-70
2023/04/23 09:19:45;;;;;;;1999.90;999.90;;;18.60;99.90;;;;;;5075243;28;20502;-72
2023/04/23 09:22:11;;;;;;;1999.90;999.90;;;19.30;99.90;;;;;;5075012;28;20028;-71
2023/04/23 09:24:42;;;;;;;1999.90;999.90;;;19.40;99.90;;;;;;5075225;28;20044;-75
2023/04/23 09:27:08;;;;;;;1999.90;999.90;;;19.40;99.90;;;;;;5075048;28;20115;-75
2023/04/23 09:29:34;;;;;;;1999.90;999.90;;;19.20;99.90;;;;;;5074977;28;20158;-71
2023/04/23 09:32:08;;;;;;;1999.90;999.90;;;19.00;99.90;;;;;;5057209;28;20111;-70
2023/04/23 09:34:38;;;;;;;1999.90;999.90;;;19.50;99.90;;;;;;5075097;28;20017;-76
2023/04/23 09:37:06;;;;;;;1999.90;999.90;;;20.30;99.90;;;;;;5075353;28;20037;-76
2023/04/23 09:39:33;;;;;;;1999.90;999.90;;;20.10;99.90;;;;;;5074672;28;20015;-77
2023/04/23 09:42:04;;;;;;;1999.90;999.90;;;19.70;99.90;;;;;;5074797;28;20032;-74
2023/04/23 09:44:32;;;;;;;1999.90;999.90;;;19.80;99.90;;;;;;5074694;28;20067;-71
2023/04/23 09:47:08;;;;;;;1999.90;999.90;;;20.60;99.90;;;;;;5074821;28;20125;-72
2023/04/23 09:49:46;;;;;;;1999.90;999.90;;;20.30;99.90;;;;;;5074711;28;20017;-76
2023/04/23 09:52:12;;;;;;;1999.90;999.90;;;19.70;99.90;;;;;;5074531;28;20067;-78
2023/04/23 09:54:37;;;;;;;1999.90;999.90;;;19.50;99.90;;;;;;5074480;28;20025;-77
2023/04/23 09:57:07;;;;;;;1999.90;999.90;;;19.40;99.90;;;;;;5074802;28;20040;-71
2023/04/23 09:59:35;;;;;;;1999.90;999.90;;;19.30;99.90;;;;;;5056518;28;20036;-71
2023/04/23 10:02:03;;;;;;;1999.90;999.90;;;19.00;99.90;;;;;;5074817;28;20045;-77
2023/04/23 10:04:28;;;;;;;1999.90;999.90;;;19.80;99.90;;;;;;5074544;28;20060;-71
2023/04/23 10:07:01;;;;;;;1999.90;999.90;;;19.90;99.90;;;;;;5073708;28;20048;-76
2023/04/23 10:09:28;;;;;;;1999.90;999.90;;;19.80;99.90;;;;;;5054317;28;20108;-76
2023/04/23 10:11:56;;;;;;;1999.90;999.90;;;19.80;99.90;;;;;;5054856;28;20025;-76
2023/04/23 10:14:24;;;;;;;1999.90;999.90;;;20.20;99.90;;;;;;5054279;28;20037;-76
2023/04/23 10:16:51;;;;;;;1999.90;999.90;;;19.60;99.90;;;;;;5053721;28;20107;-78
2023/04/23 10:19:21;;;;;;;1999.90;999.90;;;19.70;99.90;;;;;;5053554;28;20078;-78
2023/04/23 10:21:53;;;;;;;1999.90;999.90;;;19.60;99.90;;;;;;5053929;28;20021;-70
2023/04/23 10:24:23;;;;;;;1999.90;999.90;;;19.30;99.90;;;;;;5054048;28;20025;-71
2023/04/23 10:26:51;;;;;;;1999.90;999.90;;;18.90;99.90;;;;;;5054339;28;20017;-75
2023/04/23 10:29:22;;;;;;;1999.90;999.90;;;18.80;99.90;;;;;;5081345;28;20023;-74
2023/04/23 10:31:49;;;;;;;1999.90;999.90;;;18.80;99.90;;;;;;5093532;28;20020;-77
2023/04/23 10:34:16;;;;;;;1999.90;999.90;;;19.00;99.90;;;;;;5094086;28;20031;-77
2023/04/23 10:36:42;;;;;;;1999.90;999.90;;;18.90;99.90;;;;;;5093863;28;20028;-79
2023/04/23 10:39:09;;;;;;;1999.90;999.90;;;19.00;99.90;;;;;;5094078;28;20505;-76
2023/04/23 10:41:38;;;;;;;1999.90;999.90;;;18.40;99.90;;;;;;5094017;28;20157;-77
2023/04/23 10:44:04;;;;;;;1999.90;999.90;;;18.40;99.90;;;;;;5093864;28;20023;-75
2023/04/23 10:46:31;;;;;;;1999.90;999.90;;;18.00;99.90;;;;;;5093857;28;20085;-78
2023/04/23 10:49:15;;;;;;;1999.90;999.90;;;17.80;99.90;;;;;;5073617;28;20099;-76
2023/04/23 10:51:44;;;;;;;1999.90;999.90;;;17.80;99.90;;;;;;5072858;28;20419;-73
2023/04/23 10:54:10;;;;;;;1999.90;999.90;;;17.90;99.90;;;;;;5073352;28;20024;-75
2023/04/23 10:56:40;;;;;;;1999.90;999.90;;;17.30;99.90;;;;;;5073299;28;20492;-75
2023/04/23 10:59:16;;;;;;;1999.90;999.90;;;17.60;99.90;;;;;;5073295;28;20445;-76
2023/04/23 11:01:49;;;;;;;1999.90;999.90;;;17.20;99.90;;;;;;5073366;28;20112;-71
2023/04/23 11:04:28;;;;;;;1999.90;999.90;;;17.20;99.90;;;;;;5073330;28;20039;-71
2023/04/23 11:07:12;;;;;;;1999.90;999.90;;;17.40;99.90;;;;;;5072596;28;20474;-77
2023/04/23 11:09:44;;;;;;;1999.90;999.90;;;16.70;99.90;;;;;;5035107;28;20024;-80
2023/04/23 11:12:19;;;;;;;1999.90;999.90;;;17.40;99.90;;;;;;5053214;28;20025;-77
2023/04/23 11:14:47;;;;;;;1999.90;999.90;;;17.50;99.90;;;;;;5053062;28;20112;-73
2023/04/23 11:17:15;;;;;;;1999.90;999.90;;;17.30;99.90;;;;;;5053043;28;20180;-76
2023/04/23 11:20:01;;;;;;;1999.90;999.90;;;17.70;99.90;;;;;;5053160;28;20021;-77
2023/04/23 11:22:33;;;;;;;1999.90;999.90;;;18.10;99.90;;;;;;5052679;28;20029;-77
2023/04/23 11:25:01;;;;;;;1999.90;999.90;;;18.30;99.90;;;;;;5053107;28;20017;-74
2023/04/23 11:27:29;;;;;;;1999.90;999.90;;;18.60;99.90;;;;;;5035128;28;20040;-74
2023/04/23 11:29:55;;;;;;;1999.90;999.90;;;18.50;99.90;;;;;;5090776;28;20027;-80
2023/04/23 11:32:21;;;;;;;1999.90;999.90;;;18.90;99.90;;;;;;5093340;28;20028;-78
2023/04/23 11:34:49;;;;;;;1999.90;999.90;;;18.90;99.90;;;;;;5092998;28;20024;-81
2023/04/23 11:37:16;;;;;;;1999.90;999.90;;;19.20;99.90;;;;;;5093256;28;20020;-79
2023/04/23 11:39:43;;;;;;;1999.90;999.90;;;19.00;99.90;;;;;;5093114;28;20024;-76
2023/04/23 11:42:13;;;;;;;1999.90;999.90;;;18.80;99.90;;;;;;5092989;28;20090;-75
2023/04/23 11:44:40;;;;;;;1999.90;999.90;;;18.10;99.90;;;;;;5093127;28;20080;-78
2023/04/23 11:47:11;;;;;;;1999.90;999.90;;;17.30;99.90;;;;;;5088525;28;20473;-73
2023/04/23 11:49:38;;;;;;;1999.90;999.90;;;17.30;99.90;;;;;;5072572;28;20495;-80
2023/04/23 11:52:04;;;;;;;1999.90;999.90;;;17.10;99.90;;;;;;5072579;28;20060;-79
2023/04/23 11:54:30;;;;;;;1999.90;999.90;;;17.30;99.90;;;;;;5072589;28;20044;-73
2023/04/23 11:57:07;;;;;;;1999.90;999.90;;;16.80;99.90;;;;;;5072980;28;20067;-77